<?xml version="1.0" encoding="UTF-8" standalone="no" ?>
<gpx xmlns="http://www.topografix.com/GPX/1/1" xmlns:xsi="http://www.w3.org/2001/XMLSchema-instance" xsi:schemaLocation="http://www.topografix.com/GPX/1/1 http://www.topografix.com/GPX/1/1/gpx.xsd" version="1.1" creator="VisuGPX - https://www.visugpx.com">
  <metadata>
    <name>boucles beaumont</name>
    <desc><![CDATA[boucles beaumont du périgord]]></desc>
  </metadata>
  <trk>
    <name><![CDATA[BBmt20]]></name>
    <trkseg>
      <trkpt lat="44.771" lon="0.7688">
        <ele>126</ele>
        <time>2008-12-18T13:02:39Z</time>
      </trkpt>
      <trkpt lat="44.77115" lon="0.769">
        <ele>120</ele>
        <time>2008-12-18T13:04:22Z</time>
      </trkpt>
      <trkpt lat="44.7713" lon="0.76928">
        <ele>119</ele>
        <time>2008-12-18T13:04:27Z</time>
      </trkpt>
      <trkpt lat="44.77143" lon="0.76948">
        <ele>118</ele>
        <time>2008-12-18T13:04:30Z</time>
      </trkpt>
      <trkpt lat="44.77155" lon="0.76973">
        <ele>116</ele>
        <time>2008-12-18T13:04:33Z</time>
      </trkpt>
      <trkpt lat="44.77173" lon="0.77">
        <ele>114</ele>
        <time>2008-12-18T13:04:36Z</time>
      </trkpt>
      <trkpt lat="44.77188" lon="0.77028">
        <ele>113</ele>
        <time>2008-12-18T13:04:39Z</time>
      </trkpt>
      <trkpt lat="44.77203" lon="0.77053">
        <ele>112</ele>
        <time>2008-12-18T13:04:42Z</time>
      </trkpt>
      <trkpt lat="44.77215" lon="0.77078">
        <ele>111</ele>
        <time>2008-12-18T13:04:45Z</time>
      </trkpt>
      <trkpt lat="44.77233" lon="0.77103">
        <ele>110</ele>
        <time>2008-12-18T13:04:48Z</time>
      </trkpt>
      <trkpt lat="44.77245" lon="0.77123">
        <ele>108</ele>
        <time>2008-12-18T13:04:51Z</time>
      </trkpt>
      <trkpt lat="44.77258" lon="0.77143">
        <ele>103</ele>
        <time>2008-12-18T13:05:01Z</time>
      </trkpt>
      <trkpt lat="44.77273" lon="0.77163">
        <ele>102</ele>
        <time>2008-12-18T13:05:05Z</time>
      </trkpt>
      <trkpt lat="44.77288" lon="0.77178">
        <ele>100</ele>
        <time>2008-12-18T13:05:07Z</time>
      </trkpt>
      <trkpt lat="44.77308" lon="0.77203">
        <ele>99</ele>
        <time>2008-12-18T13:05:10Z</time>
      </trkpt>
      <trkpt lat="44.77325" lon="0.77225">
        <ele>99</ele>
        <time>2008-12-18T13:05:13Z</time>
      </trkpt>
      <trkpt lat="44.77343" lon="0.7725">
        <ele>99</ele>
        <time>2008-12-18T13:05:16Z</time>
      </trkpt>
      <trkpt lat="44.77355" lon="0.77273">
        <ele>98</ele>
        <time>2008-12-18T13:05:28Z</time>
      </trkpt>
      <trkpt lat="44.77343" lon="0.77295">
        <ele>97</ele>
        <time>2008-12-18T13:05:33Z</time>
      </trkpt>
      <trkpt lat="44.77323" lon="0.7732">
        <ele>96</ele>
        <time>2008-12-18T13:05:37Z</time>
      </trkpt>
      <trkpt lat="44.77305" lon="0.7734">
        <ele>96</ele>
        <time>2008-12-18T13:05:40Z</time>
      </trkpt>
      <trkpt lat="44.77285" lon="0.77363">
        <ele>96</ele>
        <time>2008-12-18T13:05:43Z</time>
      </trkpt>
      <trkpt lat="44.7727" lon="0.77383">
        <ele>97</ele>
        <time>2008-12-18T13:05:46Z</time>
      </trkpt>
      <trkpt lat="44.77183" lon="0.77915">
        <ele>132</ele>
        <time>2008-12-18T13:11:52Z</time>
      </trkpt>
      <trkpt lat="44.77178" lon="0.7794">
        <ele>132</ele>
        <time>2008-12-18T13:12:02Z</time>
      </trkpt>
      <trkpt lat="44.77173" lon="0.7797">
        <ele>133</ele>
        <time>2008-12-18T13:12:07Z</time>
      </trkpt>
      <trkpt lat="44.7717" lon="0.78">
        <ele>134</ele>
        <time>2008-12-18T13:12:12Z</time>
      </trkpt>
      <trkpt lat="44.7717" lon="0.78028">
        <ele>136</ele>
        <time>2008-12-18T13:12:16Z</time>
      </trkpt>
      <trkpt lat="44.77173" lon="0.78055">
        <ele>138</ele>
        <time>2008-12-18T13:12:29Z</time>
      </trkpt>
      <trkpt lat="44.77173" lon="0.78083">
        <ele>140</ele>
        <time>2008-12-18T13:12:35Z</time>
      </trkpt>
      <trkpt lat="44.7718" lon="0.78108">
        <ele>141</ele>
        <time>2008-12-18T13:12:40Z</time>
      </trkpt>
      <trkpt lat="44.7719" lon="0.78133">
        <ele>140</ele>
        <time>2008-12-18T13:12:44Z</time>
      </trkpt>
      <trkpt lat="44.77198" lon="0.78158">
        <ele>140</ele>
        <time>2008-12-18T13:12:48Z</time>
      </trkpt>
      <trkpt lat="44.77208" lon="0.78183">
        <ele>139</ele>
        <time>2008-12-18T13:12:52Z</time>
      </trkpt>
      <trkpt lat="44.77218" lon="0.78205">
        <ele>138</ele>
        <time>2008-12-18T13:12:56Z</time>
      </trkpt>
      <trkpt lat="44.77228" lon="0.78228">
        <ele>138</ele>
        <time>2008-12-18T13:13:00Z</time>
      </trkpt>
      <trkpt lat="44.77238" lon="0.78258">
        <ele>138</ele>
        <time>2008-12-18T13:13:05Z</time>
      </trkpt>
      <trkpt lat="44.7724" lon="0.7829">
        <ele>139</ele>
        <time>2008-12-18T13:13:10Z</time>
      </trkpt>
      <trkpt lat="44.7724" lon="0.78318">
        <ele>138</ele>
        <time>2008-12-18T13:13:14Z</time>
      </trkpt>
      <trkpt lat="44.7724" lon="0.78345">
        <ele>138</ele>
        <time>2008-12-18T13:13:18Z</time>
      </trkpt>
      <trkpt lat="44.7724" lon="0.78375">
        <ele>135</ele>
        <time>2008-12-18T13:13:23Z</time>
      </trkpt>
      <trkpt lat="44.77248" lon="0.78403">
        <ele>137</ele>
        <time>2008-12-18T13:13:27Z</time>
      </trkpt>
      <trkpt lat="44.77258" lon="0.78433">
        <ele>141</ele>
        <time>2008-12-18T13:13:31Z</time>
      </trkpt>
      <trkpt lat="44.77268" lon="0.78458">
        <ele>142</ele>
        <time>2008-12-18T13:13:34Z</time>
      </trkpt>
      <trkpt lat="44.77278" lon="0.7848">
        <ele>144</ele>
        <time>2008-12-18T13:13:37Z</time>
      </trkpt>
      <trkpt lat="44.77283" lon="0.78505">
        <ele>146</ele>
        <time>2008-12-18T13:13:40Z</time>
      </trkpt>
      <trkpt lat="44.77285" lon="0.78538">
        <ele>147</ele>
        <time>2008-12-18T13:13:44Z</time>
      </trkpt>
      <trkpt lat="44.77288" lon="0.78568">
        <ele>146</ele>
        <time>2008-12-18T13:13:48Z</time>
      </trkpt>
      <trkpt lat="44.77293" lon="0.78595">
        <ele>145</ele>
        <time>2008-12-18T13:14:04Z</time>
      </trkpt>
      <trkpt lat="44.7731" lon="0.7861">
        <ele>144</ele>
        <time>2008-12-18T13:14:08Z</time>
      </trkpt>
      <trkpt lat="44.77323" lon="0.78633">
        <ele>144</ele>
        <time>2008-12-18T13:14:11Z</time>
      </trkpt>
      <trkpt lat="44.77338" lon="0.78648">
        <ele>144</ele>
        <time>2008-12-18T13:14:14Z</time>
      </trkpt>
    </trkseg>
  </trk>
</gpx>